createdAt,value
2018-10-09T00:00:12.621Z,9.51
2018-10-09T00:02:41.215Z,9.77
2018-10-09T00:05:09.805Z,9.99
2018-10-09T00:07:38.402Z,9.99
2018-10-09T00:10:07.176Z,9.86
2018-10-09T00:12:36.127Z,9.86
2018-10-09T00:15:04.725Z,9.83
2018-10-09T00:17:33.297Z,9.78
2018-10-09T00:20:01.949Z,9.65
2018-10-09T00:22:31.670Z,9.12
2018-10-09T00:25:00.759Z,8.76
2018-10-09T00:27:29.706Z,8.77
2018-10-09T00:29:58.335Z,8.77
2018-10-09T00:32:27.051Z,9.11
2018-10-09T00:34:55.721Z,9.37
2018-10-09T00:37:24.751Z,9.60
2018-10-09T00:39:54.115Z,9.62
2018-10-09T00:42:22.713Z,9.73
2018-10-09T00:44:51.376Z,9.66
2018-10-09T00:47:20.089Z,9.65
2018-10-09T00:49:48.708Z,9.61
2018-10-09T00:52:17.535Z,9.18
2018-10-09T00:54:46.122Z,8.81
2018-10-09T00:57:15.357Z,8.29
2018-10-09T00:59:44.070Z,8.24
2018-10-09T01:02:12.772Z,8.44
2018-10-09T01:04:41.357Z,8.76
2018-10-09T01:07:10.895Z,8.97
2018-10-09T01:09:39.686Z,9.17
2018-10-09T01:12:09.592Z,9.30
2018-10-09T01:14:39.002Z,9.55
2018-10-09T01:17:08.017Z,9.55
2018-10-09T01:19:37.363Z,9.42
2018-10-09T01:22:06.272Z,9.41
2018-10-09T01:24:34.805Z,9.33
2018-10-09T01:27:03.386Z,8.82
2018-10-09T01:29:32.031Z,8.44
2018-10-09T01:32:01.150Z,8.07
2018-10-09T01:34:29.882Z,7.88
2018-10-09T01:36:58.523Z,7.98
2018-10-09T01:39:27.486Z,8.19
2018-10-09T01:41:56.065Z,8.67
2018-10-09T01:44:24.585Z,9.06
2018-10-09T01:46:53.260Z,9.26
2018-10-09T01:49:21.836Z,9.43
2018-10-09T01:51:51.224Z,9.48
2018-10-09T01:54:19.915Z,9.48
2018-10-09T01:56:49.372Z,9.41
2018-10-09T01:59:18.244Z,9.49
2018-10-09T02:01:46.829Z,9.39
2018-10-09T02:04:16.160Z,9.07
2018-10-09T02:06:44.740Z,8.95
2018-10-09T02:09:13.371Z,8.79
2018-10-09T02:11:41.986Z,8.41
2018-10-09T02:14:10.648Z,8.44
2018-10-09T02:16:39.651Z,8.75
2018-10-09T02:19:08.841Z,8.95
2018-10-09T02:21:37.436Z,9.17
2018-10-09T02:24:06.760Z,9.26
2018-10-09T02:26:35.835Z,9.38
2018-10-09T02:29:04.401Z,9.45
2018-10-09T02:31:33.064Z,9.52
2018-10-09T02:34:01.620Z,9.57
2018-10-09T02:36:30.806Z,9.56
2018-10-09T02:38:59.611Z,9.54
2018-10-09T02:41:28.291Z,9.48
2018-10-09T02:43:56.909Z,9.46
2018-10-09T02:46:26.064Z,9.49
2018-10-09T02:48:54.707Z,9.59
2018-10-09T02:51:23.250Z,9.50
2018-10-09T02:53:51.877Z,9.56
2018-10-09T02:56:20.495Z,9.68
2018-10-09T02:58:49.026Z,9.70
2018-10-09T03:01:17.625Z,9.78
2018-10-09T03:03:46.275Z,9.83
2018-10-09T03:06:14.836Z,9.67
2018-10-09T03:08:43.573Z,9.66
2018-10-09T03:11:12.285Z,9.68
2018-10-09T03:13:41.099Z,9.35
2018-10-09T03:16:10.670Z,8.79
2018-10-09T03:18:39.311Z,8.35
2018-10-09T03:21:08.712Z,8.03
2018-10-09T03:23:37.534Z,8.06
2018-10-09T03:26:06.104Z,8.21
2018-10-09T03:28:35.944Z,8.53
2018-10-09T03:31:04.634Z,8.88
2018-10-09T03:33:33.289Z,9.08
2018-10-09T03:36:01.861Z,9.14
2018-10-09T03:38:30.502Z,9.24
2018-10-09T03:40:59.657Z,9.26
2018-10-09T03:43:28.379Z,9.17
2018-10-09T03:45:56.892Z,9.13
2018-10-09T03:48:25.587Z,8.75
2018-10-09T03:50:54.139Z,8.23
2018-10-09T03:53:22.789Z,7.87
2018-10-09T03:55:51.345Z,7.63
2018-10-09T03:58:19.934Z,7.66
2018-10-09T04:00:49.540Z,7.91
2018-10-09T04:03:18.157Z,8.25
2018-10-09T04:05:46.754Z,8.58
2018-10-09T04:08:15.518Z,8.84
2018-10-09T04:10:44.758Z,9.01
2018-10-09T04:13:13.321Z,9.08
2018-10-09T04:15:41.919Z,9.21
2018-10-09T04:18:11.129Z,9.03
2018-10-09T04:20:39.776Z,8.94
2018-10-09T04:23:08.405Z,8.81
2018-10-09T04:25:37.724Z,8.50
2018-10-09T04:28:06.500Z,8.17
2018-10-09T04:30:35.060Z,8.02
2018-10-09T04:33:03.706Z,8.08
2018-10-09T04:35:32.671Z,8.29
2018-10-09T04:38:01.274Z,8.44
2018-10-09T04:40:30.629Z,8.72
2018-10-09T04:42:59.256Z,8.87
2018-10-09T04:45:29.265Z,9.04
2018-10-09T04:47:59.515Z,9.16
2018-10-09T04:50:28.170Z,9.20
2018-10-09T04:52:56.745Z,9.02
2018-10-09T04:55:25.323Z,9.00
2018-10-09T04:57:53.951Z,9.09
2018-10-09T05:00:22.530Z,8.57
2018-10-09T05:02:51.269Z,8.37
2018-10-09T05:05:20.135Z,8.04
2018-10-09T05:07:48.790Z,7.75
2018-10-09T05:10:17.476Z,7.70
2018-10-09T05:12:46.050Z,7.91
2018-10-09T05:15:15.274Z,8.27
2018-10-09T05:17:43.900Z,8.60
2018-10-09T05:20:12.556Z,8.87
2018-10-09T05:22:41.574Z,9.03
2018-10-09T05:25:10.285Z,9.10
2018-10-09T05:27:39.044Z,9.00
2018-10-09T05:30:07.932Z,8.80
2018-10-09T05:32:36.521Z,8.86
2018-10-09T05:35:05.966Z,8.74
2018-10-09T05:37:34.620Z,8.41
2018-10-09T05:40:03.517Z,8.32
2018-10-09T05:42:32.130Z,7.80
2018-10-09T05:45:00.730Z,7.74
2018-10-09T05:47:29.534Z,8.02
2018-10-09T05:49:58.309Z,8.30
2018-10-09T05:52:27.092Z,8.47
2018-10-09T05:54:55.919Z,8.61
2018-10-09T05:57:24.535Z,8.76
2018-10-09T05:59:53.658Z,8.78
2018-10-09T06:02:22.387Z,8.80
2018-10-09T06:04:51.039Z,8.72
2018-10-09T06:07:20.633Z,8.79
2018-10-09T06:09:49.656Z,8.49
2018-10-09T06:12:18.209Z,8.37
2018-10-09T06:14:46.939Z,8.42
2018-10-09T06:17:15.487Z,8.32
2018-10-09T06:19:44.060Z,8.23
2018-10-09T06:22:12.741Z,8.19
2018-10-09T06:24:41.804Z,8.49
2018-10-09T06:27:10.314Z,8.83
2018-10-09T06:29:39.021Z,9.05
2018-10-09T06:32:07.722Z,9.28
2018-10-09T06:34:36.331Z,9.50
2018-10-09T06:37:04.967Z,9.58
2018-10-09T06:39:33.612Z,9.57
2018-10-09T06:42:02.274Z,9.67
2018-10-09T06:44:30.918Z,9.71
2018-10-09T06:47:00.057Z,9.41
2018-10-09T06:49:28.744Z,8.87
2018-10-09T06:51:57.462Z,8.48
2018-10-09T06:54:26.231Z,8.26
2018-10-09T06:56:54.815Z,8.17
2018-10-09T06:59:23.450Z,8.26
2018-10-09T07:01:52.224Z,8.68
2018-10-09T07:04:21.285Z,9.23
2018-10-09T07:06:50.620Z,9.72
2018-10-09T07:09:19.121Z,10.12
2018-10-09T07:11:47.684Z,10.49
2018-10-09T07:14:16.345Z,10.59
2018-10-09T07:16:45.001Z,10.56
2018-10-09T07:19:13.582Z,10.71
2018-10-09T07:21:42.867Z,10.63
2018-10-09T07:24:11.646Z,10.35
2018-10-09T07:26:40.255Z,9.98
2018-10-09T07:29:08.812Z,9.74
2018-10-09T07:31:37.471Z,9.78
2018-10-09T07:34:06.045Z,9.81
2018-10-09T07:36:35.767Z,9.77
2018-10-09T07:39:06.156Z,9.93
2018-10-09T07:41:35.385Z,10.29
2018-10-09T07:44:04.449Z,10.75
2018-10-09T07:46:33.061Z,11.36
2018-10-09T07:49:01.799Z,11.77
2018-10-09T07:51:30.395Z,12.02
2018-10-09T07:53:59.070Z,12.19
2018-10-09T07:56:28.445Z,12.01
2018-10-09T07:58:56.981Z,11.99
2018-10-09T08:01:25.846Z,12.15
2018-10-09T08:03:55.276Z,12.21
2018-10-09T08:06:23.883Z,12.04
2018-10-09T08:08:52.607Z,11.85
2018-10-09T08:11:22.195Z,12.08
2018-10-09T08:13:51.130Z,12.46
2018-10-09T08:16:21.018Z,12.81
2018-10-09T08:18:49.801Z,13.18
2018-10-09T08:21:18.604Z,13.58
2018-10-09T08:23:47.294Z,14.02
2018-10-09T08:26:16.116Z,14.30
2018-10-09T08:28:44.791Z,14.57
2018-10-09T08:31:13.393Z,15.03
2018-10-09T08:33:41.987Z,15.43
2018-10-09T08:36:10.645Z,15.64
2018-10-09T08:38:39.410Z,15.89
2018-10-09T08:41:08.023Z,16.16
2018-10-09T08:43:36.780Z,16.55
2018-10-09T08:46:05.443Z,16.61
2018-10-09T08:48:34.001Z,16.32
2018-10-09T08:51:02.618Z,16.19
2018-10-09T08:53:31.255Z,16.31
2018-10-09T08:55:59.859Z,16.37
2018-10-09T08:58:28.551Z,16.34
2018-10-09T09:00:57.300Z,16.08
2018-10-09T09:03:26.064Z,15.87
2018-10-09T09:05:54.706Z,15.55
2018-10-09T09:08:23.355Z,15.21
2018-10-09T09:10:53.265Z,15.08
2018-10-09T09:13:22.739Z,14.80
2018-10-09T09:15:51.569Z,14.76
2018-10-09T09:18:20.292Z,14.65
2018-10-09T09:20:49.197Z,14.76
2018-10-09T09:23:18.571Z,14.91
2018-10-09T09:25:47.785Z,14.89
2018-10-09T09:28:16.517Z,15.03
2018-10-09T09:30:45.189Z,15.27
2018-10-09T09:33:14.702Z,15.55
2018-10-09T09:35:43.388Z,16.17
2018-10-09T09:38:12.149Z,16.49
2018-10-09T09:40:40.883Z,16.83
2018-10-09T09:43:09.429Z,17.28
2018-10-09T09:45:38.078Z,17.59
2018-10-09T09:48:07.389Z,17.55
2018-10-09T09:50:36.778Z,17.59
2018-10-09T09:53:05.534Z,17.51
2018-10-09T09:55:34.261Z,17.41
2018-10-09T09:58:04.133Z,16.94
2018-10-09T10:00:37.768Z,16.74
2018-10-09T10:03:07.135Z,16.50
2018-10-09T10:05:35.774Z,16.38
2018-10-09T10:08:05.091Z,16.24
2018-10-09T10:10:33.784Z,15.93
2018-10-09T10:13:02.344Z,15.92
2018-10-09T10:15:30.965Z,15.86
2018-10-09T10:18:00.307Z,16.13
2018-10-09T10:20:28.941Z,16.32
2018-10-09T10:22:57.644Z,16.73
2018-10-09T10:25:26.299Z,16.84
2018-10-09T10:27:55.231Z,16.94
2018-10-09T10:30:24.010Z,17.16
2018-10-09T10:32:53.595Z,17.33
2018-10-09T10:35:23.163Z,17.28
2018-10-09T10:37:51.719Z,17.09
2018-10-09T10:40:20.898Z,17.02
2018-10-09T10:42:49.480Z,17.13
2018-10-09T10:45:18.278Z,17.06
2018-10-09T10:47:47.540Z,17.28
2018-10-09T10:50:16.129Z,17.53
2018-10-09T10:52:44.815Z,18.04
2018-10-09T10:55:13.484Z,18.28
2018-10-09T10:57:42.060Z,18.52
2018-10-09T11:00:10.861Z,18.56
2018-10-09T11:02:40.939Z,18.67
2018-10-09T11:05:10.488Z,18.71
2018-10-09T11:07:39.820Z,18.81
2018-10-09T11:10:09.133Z,18.85
2018-10-09T11:12:37.683Z,18.81
2018-10-09T11:15:08.034Z,18.96
2018-10-09T11:17:36.558Z,19.09
2018-10-09T11:20:05.300Z,19.15
2018-10-09T11:22:34.447Z,19.33
2018-10-09T11:25:03.079Z,19.34
2018-10-09T11:27:31.784Z,19.44
2018-10-09T11:30:00.825Z,19.59
2018-10-09T11:32:29.411Z,19.85
2018-10-09T11:34:58.099Z,19.86
2018-10-09T11:37:27.140Z,19.81
2018-10-09T11:39:56.417Z,19.83
2018-10-09T11:42:24.977Z,20.11
2018-10-09T11:44:54.599Z,20.40
2018-10-09T11:47:23.181Z,20.38
2018-10-09T11:49:51.867Z,20.26
2018-10-09T11:52:20.453Z,19.89
2018-10-09T11:54:49.535Z,20.12
2018-10-09T11:57:18.946Z,20.41
2018-10-09T11:59:47.636Z,20.72
2018-10-09T12:02:16.325Z,20.63
2018-10-09T12:04:44.939Z,20.71
2018-10-09T12:07:13.544Z,20.84
2018-10-09T12:09:43.138Z,21.03
2018-10-09T12:12:11.873Z,21.10
2018-10-09T12:14:40.478Z,21.07
2018-10-09T12:17:09.168Z,20.80
2018-10-09T12:19:38.649Z,20.80
2018-10-09T12:22:07.408Z,20.91
2018-10-09T12:24:36.029Z,21.07
2018-10-09T12:27:04.867Z,21.13
2018-10-09T12:29:34.121Z,21.07
2018-10-09T12:32:03.328Z,20.90
2018-10-09T12:34:31.920Z,21.01
2018-10-09T12:37:00.575Z,20.85
2018-10-09T12:39:29.187Z,20.82
2018-10-09T12:41:58.319Z,20.78
2018-10-09T12:44:28.670Z,20.66
2018-10-09T12:46:57.353Z,20.65
2018-10-09T12:49:26.013Z,20.75
2018-10-09T12:51:55.129Z,20.84
2018-10-09T12:54:24.465Z,20.78
2018-10-09T12:56:53.237Z,20.71
2018-10-09T12:59:21.773Z,20.56
2018-10-09T13:01:50.479Z,20.43
2018-10-09T13:04:19.010Z,20.43
2018-10-09T13:06:47.756Z,20.43
2018-10-09T13:09:17.053Z,20.49
2018-10-09T13:11:45.769Z,20.52
2018-10-09T13:14:14.438Z,20.52
2018-10-09T13:16:43.090Z,20.50
2018-10-09T13:19:11.882Z,20.29
2018-10-09T13:21:41.467Z,20.15
2018-10-09T13:24:10.233Z,20.05
2018-10-09T13:26:39.058Z,20.27
2018-10-09T13:29:07.737Z,20.34
2018-10-09T13:31:36.375Z,20.16
2018-10-09T13:34:05.158Z,20.16
2018-10-09T13:36:34.920Z,20.50
2018-10-09T13:39:03.945Z,20.63
2018-10-09T13:41:32.929Z,20.76
2018-10-09T13:44:01.541Z,20.52
2018-10-09T13:46:30.098Z,20.59
2018-10-09T13:48:58.924Z,20.76
2018-10-09T13:51:28.343Z,20.65
2018-10-09T13:53:57.039Z,20.41
2018-10-09T13:56:25.818Z,20.20
2018-10-09T13:58:54.747Z,20.10
2018-10-09T14:01:23.672Z,20.16
2018-10-09T14:03:52.407Z,20.14
2018-10-09T14:06:21.204Z,20.15
2018-10-09T14:08:50.430Z,20.14
2018-10-09T14:11:19.428Z,20.05
2018-10-09T14:13:48.108Z,19.94
2018-10-09T14:16:16.826Z,20.29
2018-10-09T14:18:45.567Z,20.33
2018-10-09T14:21:14.154Z,20.11
2018-10-09T14:23:42.953Z,20.00
2018-10-09T14:26:12.107Z,19.91
2018-10-09T14:28:40.768Z,19.83
2018-10-09T14:31:09.728Z,20.08
2018-10-09T14:33:38.362Z,20.14
2018-10-09T14:36:07.599Z,20.14
2018-10-09T14:38:36.348Z,20.23
2018-10-09T14:41:05.231Z,20.14
2018-10-09T14:43:33.940Z,20.09
2018-10-09T14:46:02.491Z,19.88
2018-10-09T14:48:31.678Z,19.85
2018-10-09T14:51:00.339Z,19.92
2018-10-09T14:53:29.030Z,19.84
2018-10-09T14:55:57.737Z,19.84
2018-10-09T14:58:27.073Z,19.83
2018-10-09T15:00:56.528Z,19.87
2018-10-09T15:03:25.229Z,19.87
2018-10-09T15:05:54.015Z,19.83
2018-10-09T15:08:22.689Z,19.76
2018-10-09T15:10:51.472Z,19.50
2018-10-09T15:13:20.617Z,19.44
2018-10-09T15:15:49.263Z,19.35
2018-10-09T15:18:17.988Z,19.25
2018-10-09T15:20:46.678Z,19.16
2018-10-09T15:23:15.312Z,19.03
2018-10-09T15:25:44.773Z,19.28
2018-10-09T15:28:13.394Z,19.35
2018-10-09T15:30:42.044Z,19.16
2018-10-09T15:33:10.647Z,18.97
2018-10-09T15:35:40.153Z,18.75
2018-10-09T15:38:08.876Z,18.59
2018-10-09T15:40:37.621Z,18.54
2018-10-09T15:43:06.207Z,18.59
2018-10-09T15:45:35.071Z,18.58
2018-10-09T15:48:04.003Z,18.43
2018-10-09T15:50:32.664Z,18.16
2018-10-09T15:53:01.355Z,17.94
2018-10-09T15:55:29.939Z,17.83
2018-10-09T15:57:58.697Z,17.75
2018-10-09T16:00:27.397Z,17.60
2018-10-09T16:02:56.034Z,17.51
2018-10-09T16:05:24.588Z,17.44
2018-10-09T16:07:53.379Z,17.28
2018-10-09T16:10:22.574Z,17.15
2018-10-09T16:12:51.196Z,17.05
2018-10-09T16:15:19.845Z,16.90
2018-10-09T16:17:48.429Z,16.78
2018-10-09T16:20:17.231Z,16.72
2018-10-09T16:22:47.124Z,16.65
2018-10-09T16:25:15.770Z,16.58
2018-10-09T16:27:44.920Z,16.46
2018-10-09T16:30:14.382Z,16.34
2018-10-09T16:32:43.318Z,16.22
2018-10-09T16:35:11.877Z,16.13
2018-10-09T16:37:40.631Z,16.09
2018-10-09T16:40:09.250Z,16.01
2018-10-09T16:42:37.923Z,15.86
2018-10-09T16:45:07.441Z,15.79
2018-10-09T16:47:36.695Z,15.74
2018-10-09T16:50:05.437Z,15.77
2018-10-09T16:52:34.238Z,15.56
2018-10-09T16:55:03.023Z,15.40
2018-10-09T16:57:31.603Z,15.29
2018-10-09T17:00:00.197Z,15.22
2018-10-09T17:02:28.872Z,15.09
2018-10-09T17:04:58.009Z,15.03
2018-10-09T17:07:26.768Z,15.01
2018-10-09T17:09:55.423Z,14.93
2018-10-09T17:12:25.153Z,14.77
2018-10-09T17:14:54.107Z,14.69
2018-10-09T17:17:22.951Z,14.55
2018-10-09T17:19:52.402Z,14.47
2018-10-09T17:22:21.223Z,14.42
2018-10-09T17:24:50.485Z,14.28
2018-10-09T17:27:19.730Z,14.33
2018-10-09T17:29:48.682Z,14.28
2018-10-09T17:32:17.977Z,14.17
2018-10-09T17:34:48.337Z,14.08
2018-10-09T17:37:17.028Z,14.03
2018-10-09T17:39:45.778Z,14.00
2018-10-09T17:42:15.400Z,14.07
2018-10-09T17:44:44.107Z,14.02
2018-10-09T17:47:12.887Z,13.88
2018-10-09T17:49:41.666Z,13.85
2018-10-09T17:52:10.985Z,13.62
2018-10-09T17:54:39.828Z,13.46
2018-10-09T17:57:08.784Z,13.39
2018-10-09T17:59:37.442Z,13.33
2018-10-09T18:02:07.052Z,13.30
2018-10-09T18:04:36.057Z,13.21
2018-10-09T18:07:04.733Z,13.14
2018-10-09T18:09:34.473Z,13.20
2018-10-09T18:12:03.833Z,13.26
2018-10-09T18:14:32.803Z,13.15
2018-10-09T18:17:01.674Z,12.96
2018-10-09T18:19:30.483Z,12.81
2018-10-09T18:22:00.119Z,12.74
2018-10-09T18:24:29.575Z,12.65
2018-10-09T18:26:59.074Z,12.72
2018-10-09T18:29:29.325Z,12.80
2018-10-09T18:31:59.095Z,12.76
2018-10-09T18:34:27.824Z,12.71
2018-10-09T18:36:56.524Z,12.71
2018-10-09T18:39:25.320Z,12.71
2018-10-09T18:41:54.255Z,12.62
2018-10-09T18:44:22.789Z,12.53
2018-10-09T18:46:51.535Z,12.45
2018-10-09T18:49:20.168Z,12.44
2018-10-09T18:51:48.889Z,12.36
2018-10-09T18:54:17.562Z,12.27
2018-10-09T18:56:46.344Z,12.13
2018-10-09T18:59:15.998Z,12.02
2018-10-09T19:01:44.682Z,11.95
2018-10-09T19:04:13.439Z,11.89
2018-10-09T19:06:42.083Z,11.91
2018-10-09T19:09:12.337Z,11.90
2018-10-09T19:11:41.329Z,11.78
2018-10-09T19:14:11.114Z,11.80
2018-10-09T19:16:40.747Z,11.85
2018-10-09T19:19:09.580Z,11.97
2018-10-09T19:21:38.237Z,11.97
2018-10-09T19:24:07.247Z,11.87
2018-10-09T19:26:35.937Z,11.84
2018-10-09T19:29:04.722Z,11.84
2018-10-09T19:31:34.496Z,11.78
2018-10-09T19:34:03.241Z,11.69
2018-10-09T19:36:32.814Z,11.68
2018-10-09T19:39:03.824Z,11.72
2018-10-09T19:41:32.623Z,11.66
2018-10-09T19:44:01.287Z,11.65
2018-10-09T19:46:30.879Z,11.61
2018-10-09T19:49:00.799Z,11.49
2018-10-09T19:51:30.571Z,11.42
2018-10-09T19:54:00.330Z,11.39
2018-10-09T19:56:29.284Z,11.54
2018-10-09T19:58:58.100Z,11.63
2018-10-09T20:01:27.669Z,11.89
2018-10-09T20:03:56.399Z,12.27
2018-10-09T20:06:25.778Z,12.57
2018-10-09T20:08:54.923Z,12.76
2018-10-09T20:11:23.751Z,12.98
2018-10-09T20:13:52.394Z,12.76
2018-10-09T20:16:21.187Z,12.35
2018-10-09T20:18:49.844Z,12.11
2018-10-09T20:21:18.557Z,11.90
2018-10-09T20:23:47.338Z,11.77
2018-10-09T20:26:16.154Z,11.67
2018-10-09T20:28:44.876Z,11.65
2018-10-09T20:31:14.921Z,11.56
2018-10-09T20:33:43.627Z,11.65
2018-10-09T20:36:12.372Z,11.63
2018-10-09T20:38:41.157Z,11.57
2018-10-09T20:41:09.882Z,11.48
2018-10-09T20:43:39.352Z,11.46
2018-10-09T20:46:08.217Z,11.41
2018-10-09T20:48:37.764Z,11.28
2018-10-09T20:51:06.862Z,11.26
2018-10-09T20:53:36.144Z,11.29
2018-10-09T20:56:05.399Z,11.34
2018-10-09T20:58:34.524Z,11.21
2018-10-09T21:01:03.307Z,11.25
2018-10-09T21:03:32.014Z,11.23
2018-10-09T21:06:01.212Z,11.15
2018-10-09T21:08:29.878Z,11.11
2018-10-09T21:10:58.411Z,11.22
2018-10-09T21:13:27.086Z,11.12
2018-10-09T21:15:55.687Z,11.18
2018-10-09T21:18:25.029Z,11.13
2018-10-09T21:20:53.664Z,11.06
2018-10-09T21:23:22.277Z,11.05
2018-10-09T21:25:50.822Z,10.91
2018-10-09T21:28:19.584Z,10.90
2018-10-09T21:30:48.278Z,11.03
2018-10-09T21:33:16.988Z,11.07
2018-10-09T21:35:45.613Z,11.10
2018-10-09T21:38:14.889Z,10.99
2018-10-09T21:40:44.018Z,10.96
2018-10-09T21:43:12.552Z,10.83
2018-10-09T21:45:42.293Z,10.74
2018-10-09T21:48:10.997Z,10.67
2018-10-09T21:50:39.576Z,10.65
2018-10-09T21:53:08.188Z,10.63
2018-10-09T21:55:36.868Z,10.62
2018-10-09T21:58:05.552Z,10.79
2018-10-09T22:00:39.556Z,10.76
2018-10-09T22:03:09.035Z,10.85
2018-10-09T22:05:37.673Z,10.78
2018-10-09T22:08:06.378Z,10.85
2018-10-09T22:10:35.049Z,10.83
2018-10-09T22:13:04.331Z,10.73
2018-10-09T22:15:33.098Z,10.60
2018-10-09T22:18:02.013Z,10.53
2018-10-09T22:20:31.619Z,10.52
2018-10-09T22:23:00.206Z,10.41
2018-10-09T22:25:28.872Z,10.45
2018-10-09T22:27:58.141Z,10.55
2018-10-09T22:30:26.818Z,10.68
2018-10-09T22:32:55.606Z,10.75
2018-10-09T22:35:24.251Z,11.08
2018-10-09T22:37:53.249Z,11.50
2018-10-09T22:40:21.896Z,11.68
2018-10-09T22:42:50.830Z,11.89
2018-10-09T22:45:19.799Z,11.92
2018-10-09T22:47:49.341Z,11.52
2018-10-09T22:50:18.501Z,11.19
2018-10-09T22:52:47.086Z,10.96
2018-10-09T22:55:15.796Z,10.89
2018-10-09T22:57:44.341Z,10.65
2018-10-09T23:00:13.027Z,10.51
2018-10-09T23:02:41.771Z,10.48
2018-10-09T23:05:10.445Z,10.49
2018-10-09T23:07:39.311Z,10.52
2018-10-09T23:10:08.131Z,10.55
2018-10-09T23:12:36.961Z,10.58
2018-10-09T23:15:06.232Z,10.73
2018-10-09T23:17:34.932Z,10.99
2018-10-09T23:20:03.844Z,11.43
2018-10-09T23:22:32.894Z,11.62
2018-10-09T23:25:01.495Z,11.83
2018-10-09T23:27:30.300Z,11.70
2018-10-09T23:29:59.116Z,11.25
2018-10-09T23:32:27.781Z,10.81
2018-10-09T23:34:56.693Z,10.66
2018-10-09T23:37:25.433Z,10.43
2018-10-09T23:39:54.731Z,10.21
2018-10-09T23:42:23.530Z,10.13
2018-10-09T23:44:52.085Z,10.01
2018-10-09T23:47:20.712Z,10.31
2018-10-09T23:49:49.380Z,10.49
2018-10-09T23:52:18.048Z,10.57
2018-10-09T23:54:47.601Z,10.71
2018-10-09T23:57:16.674Z,10.94
2018-10-09T23:59:45.213Z,11.15
